createdAt,value
2022-10-28T00:01:04.804Z,49.53
2022-10-28T00:03:39.393Z,53.58
2022-10-28T00:06:09.685Z,48.38
2022-10-28T00:08:37.577Z,56.47
2022-10-28T00:11:08.291Z,51.78
2022-10-28T00:13:38.477Z,57.42
2022-10-28T00:16:09.108Z,127.60
2022-10-28T00:18:37.308Z,51.80
2022-10-28T00:21:07.949Z,105.07
2022-10-28T00:23:36.222Z,75.78
2022-10-28T00:26:12.298Z,81.78
2022-10-28T00:28:47.043Z,215.15
2022-10-28T00:31:17.158Z,141.60
2022-10-28T00:33:45.523Z,79.93
2022-10-28T00:36:16.550Z,99.25
2022-10-28T00:38:45.964Z,64.35
2022-10-28T00:41:16.232Z,53.17
2022-10-28T00:43:48.569Z,86.53
2022-10-28T00:46:26.021Z,59.80
2022-10-28T00:48:58.324Z,55.13
2022-10-28T00:51:28.326Z,55.58
2022-10-28T00:53:57.266Z,107.63
2022-10-28T00:56:28.978Z,80.18
2022-10-28T00:59:02.814Z,61.70
2022-10-28T01:01:30.949Z,185.50
2022-10-28T01:04:00.375Z,324.10
2022-10-28T01:06:30.003Z,51.88
2022-10-28T01:09:00.073Z,54.85
2022-10-28T01:11:45.233Z,56.65
2022-10-28T01:14:22.897Z,59.97
2022-10-28T01:17:13.460Z,83.97
2022-10-28T01:20:07.725Z,362.45
2022-10-28T01:22:43.410Z,422.73
2022-10-28T01:25:40.641Z,75.43
2022-10-28T01:28:18.415Z,51.85
2022-10-28T01:31:18.316Z,51.20
2022-10-28T01:33:53.400Z,68.35
2022-10-28T01:36:29.666Z,56.13
2022-10-28T01:39:06.230Z,58.88
2022-10-28T01:41:39.778Z,63.70
2022-10-28T01:44:14.652Z,125.28
2022-10-28T01:46:50.657Z,57.90
2022-10-28T01:49:23.257Z,77.63
2022-10-28T01:54:28.112Z,39.47
2022-10-28T01:56:58.866Z,38.97
2022-10-28T01:59:29.973Z,42.17
2022-10-28T02:01:59.147Z,37.75
2022-10-28T02:04:27.244Z,39.38
2022-10-28T02:06:56.785Z,38.85
2022-10-28T02:09:57.612Z,55.40
2022-10-28T02:12:29.438Z,38.08
2022-10-28T02:15:11.894Z,41.60
2022-10-28T02:20:27.393Z,42.88
2022-10-28T02:23:01.510Z,34.88
2022-10-28T02:25:34.873Z,38.15
2022-10-28T02:28:08.733Z,45.40
2022-10-28T02:30:46.571Z,38.15
2022-10-28T02:33:19.716Z,38.47
2022-10-28T02:35:52.237Z,40.33
2022-10-28T02:38:26.009Z,43.25
2022-10-28T02:41:00.054Z,42.22
2022-10-28T02:43:31.036Z,42.70
2022-10-28T02:46:01.745Z,38.38
2022-10-28T02:48:34.621Z,33.63
2022-10-28T02:51:09.359Z,37.80
2022-10-28T02:53:47.092Z,37.75
2022-10-28T02:56:18.357Z,40.67
2022-10-28T02:58:46.778Z,42.42
2022-10-28T03:01:15.115Z,35.55
2022-10-28T03:03:44.796Z,38.58
2022-10-28T03:06:13.175Z,34.83
2022-10-28T03:08:40.911Z,30.95
2022-10-28T03:11:08.809Z,38.70
2022-10-28T03:13:36.697Z,37.65
2022-10-28T03:16:04.997Z,36.65
2022-10-28T03:18:32.873Z,35.63
2022-10-28T03:21:02.304Z,38.38
2022-10-28T03:23:30.005Z,35.55
2022-10-28T03:25:57.894Z,33.20
2022-10-28T03:28:25.958Z,34.95
2022-10-28T03:30:54.081Z,33.90
2022-10-28T03:33:21.769Z,32.60
2022-10-28T03:35:49.782Z,24.80
2022-10-28T03:38:19.081Z,32.85
2022-10-28T03:40:48.662Z,29.98
2022-10-28T03:43:16.660Z,31.60
2022-10-28T03:45:44.769Z,29.20
2022-10-28T03:48:12.512Z,28.98
2022-10-28T03:50:40.554Z,27.50
2022-10-28T03:53:08.351Z,33.65
2022-10-28T03:55:37.572Z,28.33
2022-10-28T03:58:05.617Z,31.15
2022-10-28T04:00:33.596Z,28.60
2022-10-28T04:03:01.273Z,51.63
2022-10-28T04:05:29.338Z,29.75
2022-10-28T04:07:57.350Z,23.02
2022-10-28T04:10:25.213Z,26.85
2022-10-28T04:12:54.675Z,23.48
2022-10-28T04:15:22.780Z,26.00
2022-10-28T04:17:50.513Z,21.67
2022-10-28T04:20:18.974Z,19.30
2022-10-28T04:22:46.814Z,19.15
2022-10-28T04:27:48.336Z,18.90
2022-10-28T04:30:17.943Z,19.15
2022-10-28T04:32:46.357Z,13.52
2022-10-28T04:35:15.210Z,19.45
2022-10-28T04:37:43.057Z,13.77
2022-10-28T04:40:11.738Z,21.40
2022-10-28T04:42:39.761Z,16.80
2022-10-28T04:45:08.877Z,41.53
2022-10-28T04:47:38.039Z,17.55
2022-10-28T04:50:07.028Z,17.08
2022-10-28T04:52:34.762Z,18.83
2022-10-28T04:55:02.940Z,13.63
2022-10-28T04:57:32.330Z,20.15
2022-10-28T05:00:00.228Z,15.90
2022-10-28T05:02:28.126Z,16.25
2022-10-28T05:05:00.215Z,18.77
2022-10-28T05:07:27.916Z,12.65
2022-10-28T05:09:55.958Z,14.90
2022-10-28T05:12:23.938Z,16.40
2022-10-28T05:14:53.147Z,16.20
2022-10-28T05:17:21.061Z,15.20
2022-10-28T05:19:49.281Z,13.13
2022-10-28T05:22:18.638Z,12.90
2022-10-28T05:24:46.520Z,15.43
2022-10-28T05:27:14.379Z,17.40
2022-10-28T05:29:42.444Z,16.33
2022-10-28T05:32:10.163Z,18.42
2022-10-28T05:34:38.321Z,13.85
2022-10-28T05:37:06.015Z,16.95
2022-10-28T05:39:35.258Z,16.02
2022-10-28T05:42:03.183Z,13.80
2022-10-28T05:44:31.325Z,15.70
2022-10-28T05:46:59.043Z,18.27
2022-10-28T05:49:27.034Z,11.30
2022-10-28T05:51:55.025Z,19.67
2022-10-28T05:54:22.909Z,19.88
2022-10-28T05:56:52.272Z,14.30
2022-10-28T05:59:20.530Z,13.82
2022-10-28T06:01:48.562Z,13.00
2022-10-28T06:04:16.701Z,13.95
2022-10-28T06:06:44.521Z,14.65
2022-10-28T06:09:12.397Z,18.83
2022-10-28T06:11:38.693Z,14.68
2022-10-28T06:14:08.209Z,15.30
2022-10-28T06:16:37.162Z,12.43
2022-10-28T06:19:05.116Z,11.80
2022-10-28T06:21:33.494Z,14.18
2022-10-28T06:24:01.478Z,11.82
2022-10-28T06:26:29.322Z,15.82
2022-10-28T06:28:57.318Z,14.15
2022-10-28T06:31:26.389Z,12.02
2022-10-28T06:33:54.389Z,11.90
2022-10-28T06:36:22.371Z,11.02
2022-10-28T06:38:52.510Z,21.42
2022-10-28T06:41:20.325Z,13.50
2022-10-28T06:43:48.243Z,11.35
2022-10-28T06:46:15.971Z,11.35
2022-10-28T06:48:46.935Z,11.98
2022-10-28T06:51:16.876Z,7.88
2022-10-28T06:53:44.908Z,13.63
2022-10-28T06:56:12.690Z,9.55
2022-10-28T06:58:40.762Z,10.43
2022-10-28T07:01:09.948Z,9.30
2022-10-28T07:03:48.864Z,8.45
2022-10-28T07:06:18.189Z,8.63
2022-10-28T07:08:46.015Z,11.07
2022-10-28T07:11:14.019Z,9.15
2022-10-28T07:13:44.257Z,8.60
2022-10-28T07:16:14.635Z,8.05
2022-10-28T07:18:42.355Z,6.78
2022-10-28T07:21:12.258Z,8.57
2022-10-28T07:23:40.088Z,8.15
2022-10-28T07:26:07.993Z,8.80
2022-10-28T07:28:35.819Z,6.65
2022-10-28T07:31:04.508Z,8.73
2022-10-28T07:33:32.569Z,8.65
2022-10-28T07:36:04.249Z,9.40
2022-10-28T07:38:35.260Z,11.25
2022-10-28T07:41:05.995Z,11.53
2022-10-28T07:43:36.795Z,10.93
2022-10-28T07:46:05.559Z,13.73
2022-10-28T07:48:33.354Z,12.02
2022-10-28T07:51:01.738Z,13.48
2022-10-28T07:53:29.927Z,16.00
2022-10-28T07:56:00.897Z,17.48
2022-10-28T07:58:29.423Z,26.13
2022-10-28T08:00:57.911Z,33.92
2022-10-28T08:03:31.321Z,39.17
2022-10-28T08:06:08.763Z,50.70
2022-10-28T08:08:36.617Z,49.53
2022-10-28T08:11:12.437Z,53.95
2022-10-28T08:13:40.553Z,59.50
2022-10-28T08:16:09.500Z,57.95
2022-10-28T08:18:37.730Z,59.00
2022-10-28T08:21:07.549Z,60.22
2022-10-28T08:23:36.218Z,60.65
2022-10-28T08:26:04.275Z,54.00
2022-10-28T08:28:33.553Z,55.78
2022-10-28T08:31:09.936Z,46.58
2022-10-28T08:33:39.588Z,33.08
2022-10-28T08:36:08.698Z,32.58
2022-10-28T08:38:37.522Z,31.30
2022-10-28T08:41:20.098Z,34.13
2022-10-28T08:44:02.411Z,27.58
2022-10-28T08:46:49.676Z,21.13
2022-10-28T08:49:20.831Z,23.25
2022-10-28T08:51:54.175Z,21.65
2022-10-28T08:54:25.949Z,23.23
2022-10-28T08:59:30.345Z,22.42
2022-10-28T09:02:02.041Z,25.42
2022-10-28T09:04:38.759Z,30.27
2022-10-28T09:07:09.704Z,28.38
2022-10-28T09:09:37.462Z,24.02
2022-10-28T09:12:18.236Z,24.67
2022-10-28T09:15:03.677Z,26.83
2022-10-28T09:17:42.213Z,26.08
2022-10-28T09:20:19.278Z,26.00
2022-10-28T09:22:57.003Z,20.75
2022-10-28T09:25:31.979Z,21.17
2022-10-28T09:28:21.545Z,26.50
2022-10-28T09:31:00.832Z,27.15
2022-10-28T09:33:55.195Z,26.52
2022-10-28T09:36:28.452Z,21.42
2022-10-28T09:38:59.902Z,22.45
2022-10-28T09:41:32.637Z,25.13
2022-10-28T09:44:07.868Z,18.50
2022-10-28T09:46:40.088Z,24.95
2022-10-28T09:51:47.152Z,22.83
2022-10-28T09:54:15.503Z,21.25
2022-10-28T09:56:43.428Z,19.20
2022-10-28T09:59:15.119Z,21.58
2022-10-28T10:01:46.627Z,23.52
2022-10-28T10:04:20.871Z,27.63
2022-10-28T10:06:52.359Z,22.05
2022-10-28T10:09:24.844Z,21.38
2022-10-28T10:11:56.245Z,21.80
2022-10-28T10:14:29.815Z,23.83
2022-10-28T10:17:03.710Z,20.77
2022-10-28T10:19:58.834Z,21.58
2022-10-28T10:22:31.412Z,27.83
2022-10-28T10:24:59.587Z,19.83
2022-10-28T10:27:29.607Z,18.05
2022-10-28T10:29:58.656Z,18.05
2022-10-28T10:32:31.091Z,17.52
2022-10-28T10:35:03.754Z,16.58
2022-10-28T10:37:35.711Z,20.92
2022-10-28T10:40:18.506Z,19.00
2022-10-28T10:42:57.551Z,21.02
2022-10-28T10:45:34.583Z,18.58
2022-10-28T10:48:14.808Z,22.17
2022-10-28T10:50:44.475Z,18.38
2022-10-28T10:53:21.046Z,20.15
2022-10-28T10:55:55.807Z,17.27
2022-10-28T10:58:25.984Z,22.02
2022-10-28T11:00:57.020Z,20.15
2022-10-28T11:03:31.403Z,20.35
2022-10-28T11:08:50.032Z,17.33
2022-10-28T11:11:21.316Z,16.98
2022-10-28T11:14:03.169Z,17.45
2022-10-28T11:16:31.684Z,15.00
2022-10-28T11:19:16.852Z,12.43
2022-10-28T11:22:01.904Z,18.52
2022-10-28T11:24:43.529Z,15.35
2022-10-28T11:27:20.746Z,15.85
2022-10-28T11:29:49.248Z,13.38
2022-10-28T11:32:27.059Z,14.52
2022-10-28T11:35:20.079Z,18.75
2022-10-28T11:37:58.857Z,14.82
2022-10-28T11:40:35.449Z,16.63
2022-10-28T11:43:19.290Z,17.17
2022-10-28T11:45:54.812Z,14.85
2022-10-28T11:48:40.346Z,17.80
2022-10-28T11:51:19.585Z,17.15
2022-10-28T11:54:21.012Z,17.42
2022-10-28T11:56:54.800Z,16.85
2022-10-28T11:59:52.876Z,20.55
2022-10-28T12:02:38.844Z,23.98
2022-10-28T12:05:19.082Z,19.63
2022-10-28T12:08:04.227Z,22.77
2022-10-28T12:10:43.152Z,19.08
2022-10-28T12:13:21.431Z,22.00
2022-10-28T12:15:56.346Z,20.85
2022-10-28T12:18:30.839Z,22.63
2022-10-28T12:21:03.236Z,30.30
2022-10-28T12:23:35.955Z,26.60
2022-10-28T12:26:08.135Z,29.02
2022-10-28T12:31:19.214Z,25.30
2022-10-28T12:33:50.287Z,27.27
2022-10-28T12:36:26.109Z,21.85
2022-10-28T12:39:01.436Z,27.92
2022-10-28T12:41:47.723Z,28.48
2022-10-28T12:44:20.115Z,24.63
2022-10-28T12:46:58.807Z,25.55
2022-10-28T12:49:38.126Z,29.25
2022-10-28T12:52:17.015Z,33.00
2022-10-28T12:54:56.855Z,29.65
2022-10-28T12:57:26.556Z,35.67
2022-10-28T13:00:00.554Z,35.90
2022-10-28T13:02:33.416Z,35.42
2022-10-28T13:05:01.315Z,30.05
2022-10-28T13:07:56.187Z,33.28
2022-10-28T13:10:35.401Z,31.50
2022-10-28T13:13:39.128Z,30.23
2022-10-28T13:16:22.405Z,29.52
2022-10-28T13:19:06.249Z,31.35
2022-10-28T13:22:00.847Z,30.58
2022-10-28T13:24:37.032Z,28.33
2022-10-28T13:27:06.912Z,42.63
2022-10-28T13:29:35.996Z,30.25
2022-10-28T13:32:03.976Z,31.40
2022-10-28T13:34:34.981Z,31.80
2022-10-28T13:37:06.198Z,59.17
2022-10-28T13:39:44.410Z,48.65
2022-10-28T13:42:33.515Z,42.08
2022-10-28T13:45:03.490Z,44.38
2022-10-28T13:47:32.980Z,36.42
2022-10-28T13:50:32.796Z,40.67
2022-10-28T13:53:46.259Z,42.05
2022-10-28T13:56:23.229Z,44.35
2022-10-28T13:58:55.436Z,40.67
2022-10-28T14:04:28.814Z,33.47
2022-10-28T14:07:21.492Z,29.85
2022-10-28T14:09:53.169Z,24.75
2022-10-28T14:12:28.076Z,25.80
2022-10-28T14:15:19.108Z,26.95
2022-10-28T14:17:50.284Z,23.35
2022-10-28T14:20:30.587Z,27.35
2022-10-28T14:22:58.881Z,22.08
2022-10-28T14:26:01.586Z,20.42
2022-10-28T14:28:54.970Z,25.73
2022-10-28T14:31:44.851Z,27.65
2022-10-28T14:34:40.627Z,24.05
2022-10-28T14:37:38.706Z,21.08
2022-10-28T14:40:23.388Z,25.83
2022-10-28T14:43:11.863Z,23.80
2022-10-28T14:45:53.588Z,26.15
2022-10-28T14:48:34.787Z,23.67
2022-10-28T14:51:03.837Z,24.77
2022-10-28T14:53:35.468Z,23.75
2022-10-28T14:56:06.737Z,22.88
2022-10-28T14:58:38.646Z,23.40
2022-10-28T15:01:35.053Z,32.42
2022-10-28T15:04:12.083Z,28.75
2022-10-28T15:06:43.494Z,34.88
2022-10-28T15:09:19.032Z,36.38
2022-10-28T15:11:49.630Z,37.80
2022-10-28T15:14:27.158Z,46.47
2022-10-28T15:16:55.472Z,41.70
2022-10-28T15:19:27.156Z,31.40
2022-10-28T15:22:06.949Z,35.42
2022-10-28T15:24:35.444Z,18.95
2022-10-28T15:27:03.612Z,29.30
2022-10-28T15:29:32.483Z,22.17
2022-10-28T15:32:28.495Z,20.50
2022-10-28T15:34:58.431Z,29.05
2022-10-28T15:37:29.276Z,30.52
2022-10-28T15:40:19.903Z,27.27
2022-10-28T15:42:52.846Z,29.08
2022-10-28T15:45:25.547Z,36.97
2022-10-28T15:47:55.004Z,30.15
2022-10-28T15:50:30.396Z,32.03
2022-10-28T15:53:34.055Z,33.05
2022-10-28T15:56:20.583Z,33.33
2022-10-28T15:59:01.503Z,34.70
2022-10-28T16:01:38.066Z,27.25
2022-10-28T16:04:06.929Z,22.60
2022-10-28T16:06:37.901Z,29.38
2022-10-28T16:09:15.092Z,23.60
2022-10-28T16:11:47.654Z,29.10
2022-10-28T16:14:33.581Z,34.00
2022-10-28T16:17:07.325Z,32.17
2022-10-28T16:19:39.102Z,35.00
2022-10-28T16:24:39.638Z,40.22
2022-10-28T16:27:21.537Z,48.17
2022-10-28T16:29:49.874Z,42.85
2022-10-28T16:32:26.049Z,38.40
2022-10-28T16:34:53.880Z,47.47
2022-10-28T16:37:25.839Z,40.17
2022-10-28T16:39:53.976Z,45.97
2022-10-28T16:42:23.375Z,38.92
2022-10-28T16:44:51.617Z,48.22
2022-10-28T16:47:21.246Z,46.28
2022-10-28T16:49:54.125Z,43.97
2022-10-28T16:52:29.578Z,43.10
2022-10-28T16:57:26.526Z,36.13
2022-10-28T16:59:54.576Z,38.38
2022-10-28T17:02:27.044Z,36.35
2022-10-28T17:04:55.124Z,44.20
2022-10-28T17:07:23.729Z,40.88
2022-10-28T17:09:52.918Z,44.70
2022-10-28T17:12:22.972Z,43.35
2022-10-28T17:14:50.916Z,45.60
2022-10-28T17:17:19.079Z,45.95
2022-10-28T17:19:46.921Z,46.65
2022-10-28T17:22:15.323Z,51.17
2022-10-28T17:24:43.129Z,45.05
2022-10-28T17:27:13.759Z,44.53
2022-10-28T17:29:41.835Z,46.03
2022-10-28T17:32:10.098Z,41.38
2022-10-28T17:34:38.092Z,44.10
2022-10-28T17:37:07.689Z,56.42
2022-10-28T17:39:35.649Z,53.92
2022-10-28T17:42:04.040Z,71.35
2022-10-28T17:44:33.439Z,64.93
2022-10-28T17:47:01.496Z,52.03
2022-10-28T17:49:29.842Z,46.30
2022-10-28T17:51:57.912Z,51.70
2022-10-28T17:54:25.794Z,47.22
2022-10-28T17:56:53.755Z,51.40
2022-10-28T17:59:21.894Z,56.30
2022-10-28T18:01:51.272Z,49.42
2022-10-28T18:04:20.139Z,48.78
2022-10-28T18:06:48.230Z,57.75
2022-10-28T18:09:15.925Z,189.57
2022-10-28T18:11:43.996Z,570.20
2022-10-28T18:14:11.941Z,217.95
2022-10-28T18:16:39.879Z,75.97
2022-10-28T18:19:09.296Z,78.00
2022-10-28T18:21:37.507Z,58.10
2022-10-28T18:24:05.606Z,331.50
2022-10-28T18:26:35.051Z,45.17
2022-10-28T18:29:04.079Z,48.67
2022-10-28T18:31:33.305Z,44.95
2022-10-28T18:34:01.810Z,49.08
2022-10-28T18:36:34.587Z,47.42
2022-10-28T18:39:05.511Z,48.05
2022-10-28T18:41:36.032Z,61.92
2022-10-28T18:44:05.697Z,52.28
2022-10-28T18:46:35.519Z,52.30
2022-10-28T18:49:04.431Z,53.60
2022-10-28T18:51:34.038Z,55.50
2022-10-28T18:54:02.128Z,54.28
2022-10-28T18:56:30.863Z,59.50
2022-10-28T18:58:59.994Z,59.17
2022-10-28T19:01:29.910Z,61.35
2022-10-28T19:03:59.240Z,62.15
2022-10-28T19:06:29.794Z,65.72
2022-10-28T19:09:01.135Z,66.85
2022-10-28T19:11:31.874Z,68.30
2022-10-28T19:14:01.559Z,68.10
2022-10-28T19:16:36.336Z,77.88
2022-10-28T19:19:06.009Z,74.70
2022-10-28T19:21:34.404Z,76.63
2022-10-28T19:24:03.532Z,78.72
2022-10-28T19:26:33.618Z,84.28
2022-10-28T19:29:01.400Z,67.82
2022-10-28T19:31:30.726Z,71.22
2022-10-28T19:33:58.868Z,68.93
2022-10-28T19:36:28.545Z,70.60
2022-10-28T19:38:57.724Z,76.50
2022-10-28T19:41:29.675Z,75.40
2022-10-28T19:43:59.563Z,81.05
2022-10-28T19:46:29.270Z,71.13
2022-10-28T19:48:59.368Z,74.05
2022-10-28T19:51:29.192Z,74.68
2022-10-28T19:53:59.356Z,73.60
2022-10-28T19:56:30.921Z,83.55
2022-10-28T19:59:00.643Z,85.37
2022-10-28T20:01:30.841Z,82.70
2022-10-28T20:03:58.899Z,87.15
2022-10-28T20:06:32.391Z,87.95
2022-10-28T20:09:00.339Z,79.55
2022-10-28T20:11:32.636Z,77.25
2022-10-28T20:14:02.019Z,78.70
2022-10-28T20:16:32.271Z,86.38
2022-10-28T20:19:00.513Z,88.75
2022-10-28T20:21:30.554Z,84.85
2022-10-28T20:23:58.819Z,84.82
2022-10-28T20:26:29.929Z,94.75
2022-10-28T20:28:58.633Z,88.07
2022-10-28T20:31:29.039Z,94.93
2022-10-28T20:33:58.655Z,95.90
2022-10-28T20:36:28.915Z,90.60
2022-10-28T20:38:58.324Z,108.18
2022-10-28T20:41:27.621Z,105.00
2022-10-28T20:43:57.261Z,103.45
2022-10-28T20:46:26.756Z,103.05
2022-10-28T20:48:56.364Z,103.13
2022-10-28T20:51:26.337Z,107.15
2022-10-28T20:53:54.361Z,111.63
2022-10-28T20:56:24.445Z,103.38
2022-10-28T20:58:53.495Z,111.68
2022-10-28T21:01:25.232Z,108.40
2022-10-28T21:03:55.164Z,117.43
2022-10-28T21:06:23.680Z,120.07
2022-10-28T21:08:51.726Z,121.40
2022-10-28T21:11:20.064Z,122.05
2022-10-28T21:13:52.012Z,128.27
2022-10-28T21:16:21.100Z,125.50
2022-10-28T21:18:51.349Z,128.90
2022-10-28T21:21:20.067Z,120.28
2022-10-28T21:23:49.427Z,140.48
2022-10-28T21:26:17.807Z,132.98
2022-10-28T21:28:49.252Z,133.52
2022-10-28T21:31:18.107Z,139.02
2022-10-28T21:33:46.578Z,140.88
2022-10-28T21:36:17.375Z,117.78
2022-10-28T21:38:45.371Z,117.32
2022-10-28T21:41:15.910Z,123.57
2022-10-28T21:43:45.298Z,132.88
2022-10-28T21:46:13.300Z,140.98
2022-10-28T21:48:41.321Z,133.80
2022-10-28T21:51:14.393Z,143.63
2022-10-28T21:53:46.068Z,135.77
2022-10-28T21:56:18.217Z,124.07
2022-10-28T21:58:48.337Z,132.63
2022-10-28T22:01:18.403Z,127.55
2022-10-28T22:03:46.347Z,131.07
2022-10-28T22:06:14.972Z,134.18
2022-10-28T22:08:44.172Z,129.25
2022-10-28T22:11:14.019Z,121.72
2022-10-28T22:13:42.042Z,119.85
2022-10-28T22:16:12.939Z,121.97
2022-10-28T22:18:40.968Z,118.75
2022-10-28T22:21:12.155Z,128.82
2022-10-28T22:23:40.564Z,124.70
2022-10-28T22:26:12.187Z,125.03
2022-10-28T22:28:40.759Z,119.38
2022-10-28T22:31:10.925Z,119.55
2022-10-28T22:33:39.420Z,126.05
2022-10-28T22:36:09.664Z,123.55
2022-10-28T22:38:37.529Z,123.10
2022-10-28T22:41:07.107Z,122.45
2022-10-28T22:43:36.711Z,121.68
2022-10-28T22:46:05.226Z,118.47
2022-10-28T22:48:33.538Z,117.68
2022-10-28T22:51:02.796Z,121.60
2022-10-28T22:53:30.883Z,119.47
2022-10-28T22:55:58.740Z,130.45
2022-10-28T22:58:28.168Z,123.88
2022-10-28T23:01:07.106Z,123.78
2022-10-28T23:03:36.479Z,122.10
2022-10-28T23:06:04.718Z,128.68
2022-10-28T23:08:32.958Z,123.45
2022-10-28T23:11:01.440Z,125.95
2022-10-28T23:13:29.345Z,129.63
2022-10-28T23:15:57.490Z,131.32
2022-10-28T23:18:28.560Z,116.93
2022-10-28T23:20:56.270Z,120.90
2022-10-28T23:23:24.458Z,130.77
2022-10-28T23:25:53.344Z,132.05
2022-10-28T23:28:21.412Z,128.32
2022-10-28T23:30:49.535Z,125.75
2022-10-28T23:33:17.348Z,134.73
2022-10-28T23:35:53.885Z,125.47
2022-10-28T23:38:22.291Z,117.13
2022-10-28T23:41:01.270Z,121.15
2022-10-28T23:43:30.218Z,119.70
2022-10-28T23:45:59.413Z,121.55
2022-10-28T23:48:28.818Z,113.95
2022-10-28T23:50:58.527Z,105.82
2022-10-28T23:56:00.144Z,116.78
2022-10-28T23:58:28.300Z,99.68
